createdAt,value
2022-08-03T00:00:03.039Z,21.42
2022-08-03T00:01:03.538Z,21.42
2022-08-03T00:02:03.216Z,21.44
2022-08-03T00:03:03.086Z,21.42
2022-08-03T00:04:03.407Z,21.36
2022-08-03T00:05:03.671Z,21.34
2022-08-03T00:06:04.972Z,21.34
2022-08-03T00:07:02.841Z,21.35
2022-08-03T00:08:03.105Z,21.30
2022-08-03T00:09:02.699Z,21.32
2022-08-03T00:10:03.065Z,21.29
2022-08-03T00:11:02.684Z,21.29
2022-08-03T00:12:03.487Z,21.27
2022-08-03T00:13:03.148Z,21.29
2022-08-03T00:14:03.604Z,21.26
2022-08-03T00:15:03.276Z,21.24
2022-08-03T00:16:03.484Z,21.17
2022-08-03T00:17:02.863Z,21.17
2022-08-03T00:18:03.427Z,21.16
2022-08-03T00:19:03.091Z,21.14
2022-08-03T00:20:02.801Z,21.16
2022-08-03T00:21:02.596Z,21.14
2022-08-03T00:22:03.170Z,21.14
2022-08-03T00:23:03.520Z,21.11
2022-08-03T00:24:03.150Z,21.13
2022-08-03T00:25:03.501Z,21.16
2022-08-03T00:26:02.933Z,21.11
2022-08-03T00:27:03.506Z,21.09
2022-08-03T00:28:03.823Z,21.06
2022-08-03T00:29:03.408Z,21.05
2022-08-03T00:30:03.691Z,21.01
2022-08-03T00:31:03.312Z,21.02
2022-08-03T00:32:03.597Z,21.02
2022-08-03T00:33:03.897Z,21.01
2022-08-03T00:34:04.303Z,20.99
2022-08-03T00:35:08.310Z,20.98
2022-08-03T00:36:03.499Z,20.96
2022-08-03T00:37:03.873Z,20.95
2022-08-03T00:38:03.538Z,20.93
2022-08-03T00:39:04.131Z,20.91
2022-08-03T00:40:03.697Z,20.93
2022-08-03T00:41:03.951Z,20.89
2022-08-03T00:42:03.334Z,20.87
2022-08-03T00:43:03.585Z,20.86
2022-08-03T00:44:03.476Z,20.84
2022-08-03T00:45:03.442Z,20.84
2022-08-03T00:46:03.096Z,20.81
2022-08-03T00:47:03.353Z,20.84
2022-08-03T00:48:03.590Z,20.81
2022-08-03T00:49:03.229Z,20.80
2022-08-03T00:50:03.510Z,20.77
2022-08-03T00:51:03.180Z,20.74
2022-08-03T00:52:09.452Z,20.74
2022-08-03T00:53:03.307Z,20.72
2022-08-03T00:54:03.708Z,20.69
2022-08-03T00:55:03.574Z,20.71
2022-08-03T00:56:03.136Z,20.66
2022-08-03T00:57:03.648Z,20.65
2022-08-03T00:58:03.575Z,20.62
2022-08-03T00:59:03.903Z,20.64
2022-08-03T01:00:03.531Z,20.61
2022-08-03T01:01:03.959Z,20.61
2022-08-03T01:02:03.274Z,20.59
2022-08-03T01:03:03.526Z,20.58
2022-08-03T01:04:03.194Z,20.58
2022-08-03T01:05:03.361Z,20.54
2022-08-03T01:06:03.505Z,20.53
2022-08-03T01:07:03.449Z,20.53
2022-08-03T01:08:04.041Z,20.51
2022-08-03T01:09:04.041Z,20.50
2022-08-03T01:10:03.677Z,20.47
2022-08-03T01:11:03.978Z,20.49
2022-08-03T01:12:04.202Z,20.50
2022-08-03T01:13:04.438Z,20.49
2022-08-03T01:14:18.406Z,20.46
2022-08-03T01:15:04.304Z,20.47
2022-08-03T01:16:04.481Z,20.43
2022-08-03T01:17:03.832Z,20.42
2022-08-03T01:18:03.799Z,20.39
2022-08-03T01:19:03.863Z,20.39
2022-08-03T01:20:03.518Z,20.35
2022-08-03T01:21:03.776Z,20.38
2022-08-03T01:22:03.871Z,20.33
2022-08-03T01:23:04.087Z,20.33
2022-08-03T01:24:03.618Z,20.33
2022-08-03T01:25:04.032Z,20.38
2022-08-03T01:26:03.914Z,20.35
2022-08-03T01:27:03.782Z,20.33
2022-08-03T01:28:03.761Z,20.34
2022-08-03T01:29:03.942Z,20.34
2022-08-03T01:30:03.932Z,20.31
2022-08-03T01:31:04.079Z,20.30
2022-08-03T01:33:00.085Z,20.30
2022-08-03T01:33:05.077Z,20.28
2022-08-03T01:34:03.757Z,20.23
2022-08-03T01:35:04.100Z,20.21
2022-08-03T01:36:03.878Z,20.20
2022-08-03T01:37:04.065Z,20.18
2022-08-03T01:38:04.320Z,20.15
2022-08-03T01:39:04.448Z,20.13
2022-08-03T01:40:03.989Z,20.15
2022-08-03T01:41:04.432Z,20.15
2022-08-03T01:42:03.075Z,20.16
2022-08-03T01:43:03.681Z,20.16
2022-08-03T01:44:29.090Z,20.16
2022-08-03T01:45:03.790Z,20.13
2022-08-03T01:46:03.535Z,20.09
2022-08-03T01:47:03.830Z,20.10
2022-08-03T01:48:03.477Z,20.10
2022-08-03T01:49:09.028Z,20.09
2022-08-03T01:50:03.371Z,20.06
2022-08-03T01:51:03.637Z,20.05
2022-08-03T01:52:05.195Z,20.05
2022-08-03T01:53:04.073Z,20.05
2022-08-03T01:54:03.562Z,19.98
2022-08-03T01:55:03.692Z,20.02
2022-08-03T01:56:03.427Z,20.00
2022-08-03T01:57:03.949Z,20.03
2022-08-03T01:58:06.147Z,19.98
2022-08-03T01:59:03.491Z,19.98
2022-08-03T02:00:04.360Z,19.93
2022-08-03T02:01:03.977Z,19.97
2022-08-03T02:02:29.052Z,19.98
2022-08-03T02:03:03.393Z,19.94
2022-08-03T02:04:02.754Z,19.94
2022-08-03T02:05:03.312Z,19.93
2022-08-03T02:07:00.579Z,19.90
2022-08-03T02:07:03.639Z,19.93
2022-08-03T02:08:03.283Z,19.88
2022-08-03T02:09:03.276Z,19.90
2022-08-03T02:10:02.947Z,19.87
2022-08-03T02:11:03.309Z,19.87
2022-08-03T02:12:03.171Z,19.87
2022-08-03T02:13:03.565Z,19.90
2022-08-03T02:14:03.272Z,19.87
2022-08-03T02:15:03.751Z,19.86
2022-08-03T02:16:03.682Z,19.84
2022-08-03T02:17:03.990Z,19.86
2022-08-03T02:18:03.586Z,19.87
2022-08-03T02:19:03.943Z,19.86
2022-08-03T02:20:03.550Z,19.86
2022-08-03T02:21:10.847Z,19.84
2022-08-03T02:22:04.223Z,19.83
2022-08-03T02:23:03.979Z,19.80
2022-08-03T02:24:03.742Z,19.80
2022-08-03T02:25:04.160Z,19.79
2022-08-03T02:26:04.066Z,19.76
2022-08-03T02:27:03.563Z,19.76
2022-08-03T02:28:03.248Z,19.79
2022-08-03T02:29:02.935Z,19.75
2022-08-03T02:30:03.420Z,19.75
2022-08-03T02:31:03.483Z,19.75
2022-08-03T02:32:03.938Z,19.73
2022-08-03T02:33:03.649Z,19.75
2022-08-03T02:34:03.368Z,19.70
2022-08-03T02:35:03.845Z,19.70
2022-08-03T02:36:03.816Z,19.68
2022-08-03T02:37:04.264Z,19.68
2022-08-03T02:38:03.862Z,19.65
2022-08-03T02:39:03.898Z,19.65
2022-08-03T02:40:04.286Z,19.60
2022-08-03T02:41:04.393Z,19.60
2022-08-03T02:42:03.887Z,19.55
2022-08-03T02:43:03.898Z,19.54
2022-08-03T02:44:07.134Z,19.53
2022-08-03T02:45:03.581Z,19.54
2022-08-03T02:46:03.257Z,19.51
2022-08-03T02:47:03.709Z,19.46
2022-08-03T02:48:04.100Z,19.43
2022-08-03T02:49:40.995Z,19.43
2022-08-03T02:50:04.444Z,19.40
2022-08-03T02:51:04.188Z,19.40
2022-08-03T02:52:03.938Z,19.39
2022-08-03T02:53:04.265Z,19.35
2022-08-03T02:54:04.244Z,19.36
2022-08-03T02:55:04.013Z,19.38
2022-08-03T02:56:04.155Z,19.33
2022-08-03T02:57:03.481Z,19.33
2022-08-03T02:58:03.711Z,19.28
2022-08-03T02:59:03.678Z,19.31
2022-08-03T03:00:03.793Z,19.28
2022-08-03T03:01:04.158Z,19.23
2022-08-03T03:02:02.766Z,19.23
2022-08-03T03:03:02.838Z,19.21
2022-08-03T03:04:03.251Z,19.20
2022-08-03T03:05:53.117Z,19.17
2022-08-03T03:06:05.651Z,19.18
2022-08-03T03:07:03.641Z,19.18
2022-08-03T03:08:03.380Z,19.17
2022-08-03T03:09:02.785Z,19.18
2022-08-03T03:10:03.269Z,19.20
2022-08-03T03:11:02.627Z,19.20
2022-08-03T03:12:03.043Z,19.21
2022-08-03T03:13:03.357Z,19.20
2022-08-03T03:14:03.144Z,19.20
2022-08-03T03:15:03.275Z,19.18
2022-08-03T03:16:03.205Z,19.17
2022-08-03T03:17:02.282Z,19.18
2022-08-03T03:18:02.814Z,19.15
2022-08-03T03:19:02.690Z,19.14
2022-08-03T03:20:02.977Z,19.11
2022-08-03T03:21:02.525Z,19.13
2022-08-03T03:22:02.644Z,19.13
2022-08-03T03:23:02.806Z,19.14
2022-08-03T03:24:02.856Z,19.14
2022-08-03T03:25:02.823Z,19.11
2022-08-03T03:26:02.949Z,19.08
2022-08-03T03:27:03.017Z,19.06
2022-08-03T03:28:03.024Z,19.06
2022-08-03T03:29:03.294Z,19.06
2022-08-03T03:30:03.328Z,19.06
2022-08-03T03:31:03.287Z,19.05
2022-08-03T03:32:02.707Z,19.05
2022-08-03T03:33:02.115Z,19.06
2022-08-03T03:34:02.520Z,19.06
2022-08-03T03:35:02.499Z,19.05
2022-08-03T03:36:02.726Z,19.05
2022-08-03T03:37:02.731Z,19.06
2022-08-03T03:38:03.070Z,19.06
2022-08-03T03:39:15.754Z,19.05
2022-08-03T03:40:02.917Z,19.01
2022-08-03T03:41:03.159Z,19.01
2022-08-03T03:42:02.367Z,18.99
2022-08-03T03:43:02.433Z,19.05
2022-08-03T03:44:02.372Z,19.01
2022-08-03T03:45:03.082Z,19.01
2022-08-03T03:46:02.772Z,18.99
2022-08-03T03:47:03.029Z,18.97
2022-08-03T03:48:03.217Z,18.95
2022-08-03T03:49:03.493Z,18.94
2022-08-03T03:50:02.990Z,18.91
2022-08-03T03:51:02.969Z,18.90
2022-08-03T03:52:03.279Z,18.92
2022-08-03T03:53:03.573Z,18.91
2022-08-03T03:54:03.110Z,18.91
2022-08-03T03:55:03.569Z,18.90
2022-08-03T03:56:03.273Z,18.91
2022-08-03T03:57:02.987Z,18.90
2022-08-03T03:58:02.592Z,18.87
2022-08-03T03:59:02.368Z,18.87
2022-08-03T04:00:02.391Z,18.84
2022-08-03T04:01:02.410Z,18.83
2022-08-03T04:02:03.323Z,18.79
2022-08-03T04:03:03.678Z,18.77
2022-08-03T04:04:03.754Z,18.82
2022-08-03T04:05:03.639Z,18.83
2022-08-03T04:06:03.860Z,18.82
2022-08-03T04:07:03.502Z,18.83
2022-08-03T04:08:03.100Z,18.82
2022-08-03T04:09:03.185Z,18.82
2022-08-03T04:10:14.075Z,18.82
2022-08-03T04:11:02.853Z,18.83
2022-08-03T04:12:03.616Z,18.83
2022-08-03T04:13:03.760Z,18.83
2022-08-03T04:14:03.884Z,18.80
2022-08-03T04:15:03.930Z,18.82
2022-08-03T04:16:03.407Z,18.86
2022-08-03T04:17:02.906Z,18.86
2022-08-03T04:18:02.646Z,18.83
2022-08-03T04:19:02.930Z,18.87
2022-08-03T04:20:03.289Z,18.92
2022-08-03T04:21:02.818Z,18.92
2022-08-03T04:22:02.869Z,18.94
2022-08-03T04:23:03.120Z,18.94
2022-08-03T04:24:02.953Z,18.92
2022-08-03T04:25:03.161Z,18.91
2022-08-03T04:26:02.698Z,18.92
2022-08-03T04:27:03.508Z,18.95
2022-08-03T04:28:08.221Z,18.92
2022-08-03T04:29:02.849Z,18.95
2022-08-03T04:30:02.818Z,18.91
2022-08-03T04:31:03.427Z,18.90
2022-08-03T04:32:03.800Z,18.90
2022-08-03T04:33:03.650Z,18.90
2022-08-03T04:34:03.522Z,18.87
2022-08-03T04:35:03.890Z,18.84
2022-08-03T04:36:03.915Z,18.83
2022-08-03T04:37:04.138Z,18.83
2022-08-03T04:38:03.964Z,18.82
2022-08-03T04:39:03.986Z,18.87
2022-08-03T04:40:03.774Z,18.86
2022-08-03T04:41:04.206Z,18.91
2022-08-03T04:42:08.506Z,18.90
2022-08-03T04:43:03.559Z,18.94
2022-08-03T04:44:03.464Z,18.91
2022-08-03T04:45:04.011Z,18.91
2022-08-03T04:46:03.867Z,18.90
2022-08-03T04:47:04.389Z,18.92
2022-08-03T04:48:04.533Z,18.91
2022-08-03T04:49:04.053Z,18.91
2022-08-03T04:50:04.915Z,18.90
2022-08-03T04:51:03.540Z,18.86
2022-08-03T04:52:04.112Z,18.84
2022-08-03T04:53:03.988Z,18.87
2022-08-03T04:54:03.586Z,18.86
2022-08-03T04:55:03.878Z,18.86
2022-08-03T04:56:03.840Z,18.86
2022-08-03T04:57:04.399Z,18.86
2022-08-03T04:58:03.877Z,18.87
2022-08-03T04:59:04.449Z,18.86
2022-08-03T05:00:04.326Z,18.87
2022-08-03T05:01:04.517Z,18.90
2022-08-03T05:02:03.228Z,18.90
2022-08-03T05:03:03.118Z,18.92
2022-08-03T05:04:03.014Z,18.94
2022-08-03T05:05:02.958Z,18.94
2022-08-03T05:06:11.299Z,18.94
2022-08-03T05:07:12.249Z,18.94
2022-08-03T05:08:03.564Z,18.95
2022-08-03T05:09:03.463Z,18.99
2022-08-03T05:10:03.476Z,18.99
2022-08-03T05:11:03.184Z,18.99
2022-08-03T05:12:03.742Z,18.97
2022-08-03T05:13:03.578Z,18.99
2022-08-03T05:14:03.696Z,18.99
2022-08-03T05:15:03.534Z,19.02
2022-08-03T05:16:03.193Z,19.05
2022-08-03T05:17:03.805Z,19.05
2022-08-03T05:18:03.584Z,19.02
2022-08-03T05:19:03.443Z,19.06
2022-08-03T05:20:03.801Z,19.08
2022-08-03T05:21:03.696Z,19.14
2022-08-03T05:22:02.638Z,19.14
2022-08-03T05:23:02.802Z,19.17
2022-08-03T05:24:02.737Z,19.17
2022-08-03T05:25:03.341Z,19.21
2022-08-03T05:26:03.225Z,19.28
2022-08-03T05:27:03.112Z,19.31
2022-08-03T05:28:03.706Z,19.38
2022-08-03T05:29:03.438Z,19.46
2022-08-03T05:30:30.938Z,19.50
2022-08-03T05:31:03.235Z,19.54
2022-08-03T05:32:08.027Z,19.58
2022-08-03T05:33:03.015Z,19.65
2022-08-03T05:34:02.924Z,19.69
2022-08-03T05:35:55.843Z,19.73
2022-08-03T05:36:04.453Z,19.79
2022-08-03T05:37:03.450Z,19.84
2022-08-03T05:38:03.406Z,19.91
2022-08-03T05:39:03.446Z,19.98
2022-08-03T05:40:03.346Z,20.08
2022-08-03T05:41:21.089Z,20.18
2022-08-03T05:42:03.047Z,20.20
2022-08-03T05:43:03.081Z,20.28
2022-08-03T05:44:02.827Z,20.41
2022-08-03T05:45:03.340Z,20.47
2022-08-03T05:46:11.696Z,20.53
2022-08-03T05:47:02.813Z,20.64
2022-08-03T05:48:03.666Z,20.72
2022-08-03T05:49:03.205Z,20.81
2022-08-03T05:50:03.641Z,20.89
2022-08-03T05:51:03.406Z,20.99
2022-08-03T05:52:12.396Z,21.06
2022-08-03T05:53:03.897Z,21.19
2022-08-03T05:54:03.673Z,21.24
2022-08-03T05:55:03.454Z,21.34
2022-08-03T05:56:03.218Z,21.39
2022-08-03T05:57:03.436Z,21.46
2022-08-03T05:58:03.629Z,21.56
2022-08-03T05:59:22.373Z,21.61
2022-08-03T06:00:03.693Z,21.67
2022-08-03T06:01:03.563Z,21.75
2022-08-03T06:02:03.050Z,21.81
2022-08-03T06:03:03.036Z,21.92
2022-08-03T06:04:03.579Z,22.02
2022-08-03T06:05:03.396Z,22.12
2022-08-03T06:06:03.261Z,22.20
2022-08-03T06:07:03.241Z,22.29
2022-08-03T06:08:03.513Z,22.38
2022-08-03T06:09:03.677Z,22.47
2022-08-03T06:10:33.803Z,22.56
2022-08-03T06:11:03.101Z,22.64
2022-08-03T06:12:03.200Z,22.71
2022-08-03T06:13:02.702Z,22.78
2022-08-03T06:14:02.743Z,22.84
2022-08-03T06:15:02.612Z,22.89
2022-08-03T06:16:03.185Z,22.90
2022-08-03T06:17:03.255Z,22.97
2022-08-03T06:18:03.245Z,23.02
2022-08-03T06:19:03.118Z,23.11
2022-08-03T06:20:03.004Z,23.19
2022-08-03T06:21:14.435Z,23.27
2022-08-03T06:22:03.187Z,23.34
2022-08-03T06:23:03.418Z,23.40
2022-08-03T06:24:03.630Z,23.49
2022-08-03T06:25:04.816Z,23.58
2022-08-03T06:26:03.162Z,23.62
2022-08-03T06:27:02.842Z,23.67
2022-08-03T06:28:02.808Z,23.75
2022-08-03T06:29:03.960Z,23.79
2022-08-03T06:30:02.653Z,23.87
2022-08-03T06:31:02.655Z,23.97
2022-08-03T06:32:03.199Z,24.01
2022-08-03T06:33:03.203Z,24.08
2022-08-03T06:34:30.698Z,24.14
2022-08-03T06:35:03.338Z,24.20
2022-08-03T06:36:03.241Z,24.27
2022-08-03T06:37:03.567Z,24.37
2022-08-03T06:38:03.766Z,24.45
2022-08-03T06:39:03.623Z,24.53
2022-08-03T06:40:03.539Z,24.60
2022-08-03T06:41:03.527Z,24.69
2022-08-03T06:42:03.206Z,24.79
2022-08-03T06:43:03.155Z,24.88
2022-08-03T06:44:04.466Z,24.97
2022-08-03T06:45:03.324Z,25.05
2022-08-03T06:46:03.249Z,25.12
2022-08-03T06:47:02.984Z,25.22
2022-08-03T06:48:03.037Z,25.25
2022-08-03T06:49:03.036Z,25.31
2022-08-03T06:50:16.508Z,25.38
2022-08-03T06:51:02.905Z,25.46
2022-08-03T06:52:06.864Z,25.54
2022-08-03T06:53:03.425Z,25.62
2022-08-03T06:54:02.576Z,25.68
2022-08-03T06:55:03.479Z,25.75
2022-08-03T06:56:03.696Z,25.82
2022-08-03T06:57:03.685Z,25.90
2022-08-03T06:58:03.762Z,25.97
2022-08-03T06:59:03.732Z,26.05
2022-08-03T07:00:09.607Z,26.17
2022-08-03T07:01:03.373Z,26.27
2022-08-03T07:02:04.000Z,26.35
2022-08-03T07:03:03.915Z,26.43
2022-08-03T07:04:04.528Z,26.52
2022-08-03T07:05:03.845Z,26.61
2022-08-03T07:06:03.800Z,26.67
2022-08-03T07:07:03.380Z,26.73
2022-08-03T07:08:03.305Z,26.80
2022-08-03T07:09:03.426Z,26.84
2022-08-03T07:10:03.924Z,26.86
2022-08-03T07:11:03.672Z,26.92
2022-08-03T07:12:04.116Z,26.96
2022-08-03T07:13:03.859Z,27.04
2022-08-03T07:14:03.811Z,27.04
2022-08-03T07:15:04.393Z,27.11
2022-08-03T07:16:04.492Z,27.17
2022-08-03T07:17:04.646Z,27.26
2022-08-03T07:18:04.317Z,27.32
2022-08-03T07:19:04.670Z,27.39
2022-08-03T07:20:04.134Z,27.47
2022-08-03T07:21:04.243Z,27.57
2022-08-03T07:22:04.496Z,27.57
2022-08-03T07:23:03.648Z,27.62
2022-08-03T07:24:03.625Z,27.69
2022-08-03T07:25:03.856Z,27.74
2022-08-03T07:26:03.633Z,27.76
2022-08-03T07:27:04.180Z,27.85
2022-08-03T07:28:03.858Z,27.89
2022-08-03T07:29:04.415Z,27.92
2022-08-03T07:30:04.424Z,27.98
2022-08-03T07:31:04.393Z,28.06
2022-08-03T07:32:04.318Z,28.07
2022-08-03T07:33:04.122Z,28.13
2022-08-03T07:34:04.081Z,28.21
2022-08-03T07:35:03.900Z,28.29
2022-08-03T07:36:03.911Z,28.40
2022-08-03T07:37:04.526Z,28.47
2022-08-03T07:38:04.521Z,28.51
2022-08-03T07:39:15.318Z,28.62
2022-08-03T07:40:04.310Z,28.69
2022-08-03T07:41:04.134Z,28.77
2022-08-03T07:42:03.864Z,28.81
2022-08-03T07:43:03.940Z,28.91
2022-08-03T07:44:03.989Z,29.01
2022-08-03T07:45:04.002Z,29.10
2022-08-03T07:46:04.028Z,29.16
2022-08-03T07:47:04.126Z,29.22
2022-08-03T07:48:07.534Z,29.25
2022-08-03T07:49:03.874Z,29.28
2022-08-03T07:50:04.123Z,29.29
2022-08-03T07:51:03.741Z,29.35
2022-08-03T07:52:03.979Z,29.35
2022-08-03T07:53:03.883Z,29.38
2022-08-03T07:54:03.855Z,29.44
2022-08-03T07:55:04.522Z,29.47
2022-08-03T07:56:06.743Z,29.50
2022-08-03T07:57:03.800Z,29.56
2022-08-03T07:58:03.383Z,29.59
2022-08-03T07:59:03.549Z,29.65
2022-08-03T08:00:03.947Z,29.68
2022-08-03T08:01:03.997Z,29.74
2022-08-03T08:02:02.993Z,29.82
2022-08-03T08:03:02.897Z,29.93
2022-08-03T08:04:02.886Z,29.99
2022-08-03T08:05:05.755Z,30.08
2022-08-03T08:06:02.663Z,30.07
2022-08-03T08:07:03.335Z,30.09
2022-08-03T08:08:02.696Z,30.15
2022-08-03T08:09:02.921Z,30.19
2022-08-03T08:10:02.956Z,30.24
2022-08-03T08:11:02.933Z,30.33
2022-08-03T08:12:03.570Z,30.37
2022-08-03T08:13:03.160Z,30.45
2022-08-03T08:14:03.114Z,30.52
2022-08-03T08:15:03.335Z,30.61
2022-08-03T08:16:03.292Z,30.65
2022-08-03T08:17:07.234Z,30.75
2022-08-03T08:18:03.516Z,30.78
2022-08-03T08:19:03.371Z,30.83
2022-08-03T08:20:03.246Z,30.89
2022-08-03T08:21:03.231Z,30.94
2022-08-03T08:22:03.813Z,30.98
2022-08-03T08:23:04.182Z,31.02
2022-08-03T08:24:03.759Z,31.05
2022-08-03T08:25:03.819Z,31.12
2022-08-03T08:26:03.385Z,31.15
2022-08-03T08:27:04.080Z,31.21
2022-08-03T08:28:29.133Z,31.24
2022-08-03T08:29:03.965Z,31.28
2022-08-03T08:30:10.412Z,31.31
2022-08-03T08:31:03.809Z,31.36
2022-08-03T08:32:02.763Z,31.40
2022-08-03T08:33:03.264Z,31.43
2022-08-03T08:34:04.316Z,31.46
2022-08-03T08:35:03.239Z,31.54
2022-08-03T08:36:02.867Z,31.57
2022-08-03T08:37:03.335Z,31.64
2022-08-03T08:38:05.668Z,31.72
2022-08-03T08:39:03.201Z,31.76
2022-08-03T08:40:03.360Z,31.80
2022-08-03T08:41:02.941Z,31.93
2022-08-03T08:42:02.891Z,32.02
2022-08-03T08:43:03.241Z,32.14
2022-08-03T08:44:03.329Z,32.20
2022-08-03T08:45:03.072Z,32.32
2022-08-03T08:46:02.655Z,32.40
2022-08-03T08:47:03.551Z,32.40
2022-08-03T08:48:07.923Z,32.40
2022-08-03T08:49:04.881Z,32.42
2022-08-03T08:50:10.123Z,32.47
2022-08-03T08:51:03.784Z,32.47
2022-08-03T08:52:03.835Z,32.43
2022-08-03T08:53:04.071Z,32.48
2022-08-03T08:54:03.568Z,32.57
2022-08-03T08:55:03.974Z,32.69
2022-08-03T08:56:03.525Z,32.76
2022-08-03T08:57:03.100Z,32.86
2022-08-03T08:58:03.634Z,32.95
2022-08-03T08:59:03.273Z,33.04
2022-08-03T09:00:03.261Z,33.11
2022-08-03T09:01:03.310Z,33.20
2022-08-03T09:02:03.235Z,33.20
2022-08-03T09:03:03.789Z,33.29
2022-08-03T09:04:03.415Z,33.31
2022-08-03T09:05:07.341Z,33.36
2022-08-03T09:06:03.744Z,33.43
2022-08-03T09:07:29.017Z,33.46
2022-08-03T09:08:03.919Z,33.53
2022-08-03T09:09:03.333Z,33.63
2022-08-03T09:10:11.646Z,33.57
2022-08-03T09:11:03.706Z,33.53
2022-08-03T09:12:35.051Z,33.57
2022-08-03T09:13:02.924Z,33.53
2022-08-03T09:14:03.317Z,33.55
2022-08-03T09:15:16.439Z,33.57
2022-08-03T09:16:02.957Z,33.58
2022-08-03T09:17:03.505Z,33.65
2022-08-03T09:18:03.317Z,33.70
2022-08-03T09:19:03.959Z,33.78
2022-08-03T09:20:03.990Z,33.80
2022-08-03T09:21:24.217Z,33.83
2022-08-03T09:22:03.928Z,33.89
2022-08-03T09:23:19.003Z,33.92
2022-08-03T09:24:05.655Z,33.95
2022-08-03T09:25:23.470Z,33.95
2022-08-03T09:26:03.600Z,33.97
2022-08-03T09:27:03.354Z,33.95
2022-08-03T09:28:03.707Z,33.92
2022-08-03T09:29:09.341Z,33.89
2022-08-03T09:30:03.529Z,33.94
2022-08-03T09:31:04.176Z,33.98
2022-08-03T09:32:04.161Z,33.98
2022-08-03T09:33:04.020Z,33.97
2022-08-03T09:34:04.174Z,33.94
2022-08-03T09:35:04.098Z,33.94
2022-08-03T09:36:04.497Z,33.94
2022-08-03T09:37:03.103Z,34.00
2022-08-03T09:38:11.917Z,34.02
2022-08-03T09:39:03.273Z,34.07
2022-08-03T09:40:03.255Z,34.11
2022-08-03T09:41:03.809Z,34.17
2022-08-03T09:42:03.353Z,34.23
2022-08-03T09:43:03.340Z,34.29
2022-08-03T09:44:03.820Z,34.34
2022-08-03T09:45:03.327Z,34.41
2022-08-03T09:46:04.036Z,34.45
2022-08-03T09:47:03.488Z,34.48
2022-08-03T09:48:03.572Z,34.54
2022-08-03T09:49:03.997Z,34.57
2022-08-03T09:50:03.577Z,34.57
2022-08-03T09:51:14.041Z,34.60
2022-08-03T09:52:33.608Z,34.53
2022-08-03T09:53:03.879Z,34.60
2022-08-03T09:54:03.543Z,34.60
2022-08-03T09:55:03.999Z,34.66
2022-08-03T09:56:36.006Z,34.73
2022-08-03T09:57:03.403Z,34.77
2022-08-03T09:58:03.945Z,34.79
2022-08-03T09:59:03.541Z,34.81
2022-08-03T10:00:07.992Z,34.84
2022-08-03T10:01:03.556Z,34.91
2022-08-03T10:02:03.033Z,34.88
2022-08-03T10:03:03.305Z,34.92
2022-08-03T10:04:04.977Z,34.89
2022-08-03T10:05:03.242Z,34.92
2022-08-03T10:06:02.931Z,35.01
2022-08-03T10:07:03.607Z,35.06
2022-08-03T10:08:03.842Z,35.11
2022-08-03T10:09:03.451Z,35.13
2022-08-03T10:10:29.013Z,35.13
2022-08-03T10:11:03.601Z,35.11
2022-08-03T10:12:03.037Z,35.01
2022-08-03T10:13:03.139Z,34.89
2022-08-03T10:14:03.031Z,34.83
2022-08-03T10:15:03.504Z,34.79
2022-08-03T10:16:22.183Z,34.76
2022-08-03T10:17:03.688Z,34.86
2022-08-03T10:18:03.503Z,34.92
2022-08-03T10:19:03.368Z,35.03
2022-08-03T10:20:03.851Z,35.07
2022-08-03T10:21:03.675Z,35.11
2022-08-03T10:22:03.852Z,35.20
2022-08-03T10:23:03.747Z,35.28
2022-08-03T10:24:03.632Z,35.30
2022-08-03T10:25:04.218Z,35.21
2022-08-03T10:26:03.990Z,35.28
2022-08-03T10:27:03.395Z,35.37
2022-08-03T10:28:03.496Z,35.45
2022-08-03T10:29:03.195Z,35.48
2022-08-03T10:30:03.265Z,35.47
2022-08-03T10:31:03.155Z,35.50
2022-08-03T10:32:04.081Z,35.51
2022-08-03T10:33:03.650Z,35.52
2022-08-03T10:34:03.884Z,35.52
2022-08-03T10:35:13.035Z,35.60
2022-08-03T10:36:03.889Z,35.58
2022-08-03T10:37:04.365Z,35.64
2022-08-03T10:38:04.088Z,35.74
2022-08-03T10:39:04.403Z,35.82
2022-08-03T10:40:04.071Z,35.92
2022-08-03T10:41:04.507Z,35.85
2022-08-03T10:42:03.974Z,35.82
2022-08-03T10:43:03.617Z,35.85
2022-08-03T10:44:04.086Z,35.92
2022-08-03T10:45:03.855Z,35.95
2022-08-03T10:46:03.658Z,36.04
2022-08-03T10:47:03.650Z,36.08
2022-08-03T10:48:03.144Z,36.14
2022-08-03T10:49:03.914Z,36.19
2022-08-03T10:50:03.633Z,36.15
2022-08-03T10:51:03.733Z,36.21
2022-08-03T10:52:12.941Z,36.21
2022-08-03T10:53:04.130Z,36.19
2022-08-03T10:54:04.030Z,36.19
2022-08-03T10:55:07.715Z,36.26
2022-08-03T10:56:04.144Z,36.29
2022-08-03T10:57:13.539Z,36.24
2022-08-03T10:58:07.942Z,36.14
2022-08-03T10:59:04.004Z,36.11
2022-08-03T11:00:04.088Z,36.00
2022-08-03T11:01:03.983Z,36.01
2022-08-03T11:02:03.557Z,36.03
2022-08-03T11:03:03.252Z,36.17
2022-08-03T11:04:09.008Z,36.27
2022-08-03T11:05:03.641Z,36.24
2022-08-03T11:06:03.436Z,36.15
2022-08-03T11:07:03.799Z,36.07
2022-08-03T11:08:03.322Z,35.97
2022-08-03T11:09:03.290Z,35.88
2022-08-03T11:10:06.682Z,35.92
2022-08-03T11:11:03.717Z,35.93
2022-08-03T11:12:04.056Z,35.95
2022-08-03T11:13:03.460Z,35.97
2022-08-03T11:14:03.566Z,36.00
2022-08-03T11:15:03.567Z,36.06
2022-08-03T11:16:06.664Z,36.11
2022-08-03T11:17:02.689Z,36.07
2022-08-03T11:18:02.871Z,36.17
2022-08-03T11:19:02.814Z,36.27
2022-08-03T11:20:03.387Z,36.38
2022-08-03T11:21:03.169Z,36.46
2022-08-03T11:22:02.878Z,36.52
2022-08-03T11:23:03.030Z,36.60
2022-08-03T11:24:06.598Z,36.67
2022-08-03T11:25:03.180Z,36.75
2022-08-03T11:26:03.052Z,36.82
2022-08-03T11:27:05.839Z,36.95
2022-08-03T11:28:03.109Z,37.02
2022-08-03T11:29:03.686Z,36.99
2022-08-03T11:30:03.518Z,37.05
2022-08-03T11:31:03.292Z,37.12
2022-08-03T11:32:03.704Z,37.19
2022-08-03T11:33:03.866Z,37.26
2022-08-03T11:34:04.330Z,37.32
2022-08-03T11:35:04.098Z,37.41
2022-08-03T11:36:03.810Z,37.50
2022-08-03T11:37:04.422Z,37.58
2022-08-03T11:38:05.206Z,37.61
2022-08-03T11:39:03.459Z,37.66
2022-08-03T11:40:03.604Z,37.67
2022-08-03T11:41:03.932Z,37.71
2022-08-03T11:42:03.642Z,37.76
2022-08-03T11:43:03.487Z,37.74
2022-08-03T11:44:03.754Z,37.73
2022-08-03T11:45:03.808Z,37.67
2022-08-03T11:46:03.594Z,37.64
2022-08-03T11:47:04.189Z,37.61
2022-08-03T11:48:04.096Z,37.64
2022-08-03T11:49:07.820Z,37.56
2022-08-03T11:50:04.420Z,37.58
2022-08-03T11:51:04.210Z,37.54
2022-08-03T11:52:03.879Z,37.54
2022-08-03T11:53:04.382Z,37.59
2022-08-03T11:54:04.122Z,37.66
2022-08-03T11:55:04.101Z,37.51
2022-08-03T11:56:04.568Z,37.38
2022-08-03T11:57:04.467Z,37.41
2022-08-03T11:59:01.382Z,37.46
2022-08-03T11:59:20.749Z,37.43
2022-08-03T12:00:03.312Z,37.41
2022-08-03T12:01:03.563Z,37.41
2022-08-03T12:02:03.772Z,37.39
2022-08-03T12:03:03.326Z,37.32
2022-08-03T12:04:02.861Z,37.28
2022-08-03T12:05:03.400Z,37.26
2022-08-03T12:06:02.727Z,37.24
2022-08-03T12:07:02.762Z,37.26
2022-08-03T12:08:06.695Z,37.35
2022-08-03T12:09:03.064Z,37.43
2022-08-03T12:10:03.174Z,37.43
2022-08-03T12:11:03.577Z,37.42
2022-08-03T12:12:03.202Z,37.35
2022-08-03T12:13:03.240Z,37.28
2022-08-03T12:14:49.235Z,37.14
2022-08-03T12:15:03.618Z,37.02
2022-08-03T12:16:03.447Z,37.09
2022-08-03T12:17:03.212Z,37.21
2022-08-03T12:18:04.500Z,37.35
2022-08-03T12:19:04.284Z,37.50
2022-08-03T12:20:04.118Z,37.62
2022-08-03T12:21:03.932Z,37.74
2022-08-03T12:22:04.375Z,37.83
2022-08-03T12:23:03.302Z,37.86
2022-08-03T12:24:03.307Z,37.70
2022-08-03T12:25:03.779Z,37.47
2022-08-03T12:26:03.633Z,37.32
2022-08-03T12:27:03.930Z,37.26
2022-08-03T12:28:03.786Z,37.28
2022-08-03T12:29:03.777Z,37.29
2022-08-03T12:30:04.417Z,37.35
2022-08-03T12:31:04.429Z,37.42
2022-08-03T12:32:04.022Z,37.47
2022-08-03T12:33:04.173Z,37.64
2022-08-03T12:34:03.751Z,37.76
2022-08-03T12:35:03.613Z,37.83
2022-08-03T12:36:04.054Z,37.92
2022-08-03T12:37:03.862Z,38.01
2022-08-03T12:38:03.729Z,37.99
2022-08-03T12:39:04.303Z,38.04
2022-08-03T12:40:09.398Z,37.99
2022-08-03T12:41:03.717Z,37.81
2022-08-03T12:42:03.709Z,37.61
2022-08-03T12:43:03.750Z,37.54
2022-08-03T12:44:03.891Z,37.38
2022-08-03T12:45:04.144Z,37.36
2022-08-03T12:46:03.871Z,37.26
2022-08-03T12:47:03.811Z,37.19
2022-08-03T12:48:03.963Z,37.12
2022-08-03T12:49:04.465Z,37.04
2022-08-03T12:50:04.225Z,36.95
2022-08-03T12:51:04.012Z,36.87
2022-08-03T12:52:07.619Z,36.83